Terminal Aerodrome Forecast
Issued by NWS Amarillo, TX

Home | Current Version | Previous Version | Text Only | Print | Product List | Glossary On
Versions: 1 2 3 4 5 6 7 8 9 10 11 12 13 14
000
FTUS44 KAMA 031127
TAFAMA
TAF
KAMA 031127Z 0312/0412 03011KT 2SM -RASN BR OVC002
     FM031800 03006KT 2SM -RA BR OVC004
     FM040000 03005KT 2SM BR OVC003
     FM040600 35005KT 1SM -RASN BR OVC003=

USA.gov is the U.S. government's official web portal to all federal, state and local government web resources and services.